Time;durP1;ratioP1;P1;durP2;ratioP2;P2;SDS_P1;SDS_P2;PMS_P1;PMS_P2;Temp;Humidity;BMP_temperature;BMP_pressure;BME280_temperature;BME280_humidity;BME280_pressure;Samples;Min_cycle;Max_cycle;Signal;HPM_P1;HPM_P2
2022/07/24 00:02:24;;;;;;;3.60;3.40;;;12.80;68.80;;;;;;5094218;28;20630;-75
2022/07/24 00:04:50;;;;;;;3.67;3.37;;;12.70;68.00;;;;;;5094946;28;20395;-73
2022/07/24 00:07:16;;;;;;;4.00;3.70;;;12.70;65.60;;;;;;5094295;28;20170;-66
2022/07/24 00:09:42;;;;;;;2.93;2.73;;;12.70;65.20;;;;;;5094696;28;20406;-75
2022/07/24 00:12:08;;;;;;;4.20;3.80;;;12.70;64.90;;;;;;5094727;28;20211;-67
2022/07/24 00:14:33;;;;;;;3.97;3.47;;;12.70;62.80;;;;;;5094106;28;20284;-66
2022/07/24 00:16:59;;;;;;;3.77;3.43;;;12.60;57.40;;;;;;5094001;28;20933;-74
2022/07/24 00:19:25;;;;;;;3.60;3.37;;;12.60;60.00;;;;;;5094951;28;20169;-74
2022/07/24 00:21:51;;;;;;;6.30;4.20;;;12.60;62.20;;;;;;5094647;28;20161;-66
2022/07/24 00:24:16;;;;;;;4.40;4.10;;;12.60;67.40;;;;;;5093616;28;20260;-73
2022/07/24 00:26:42;;;;;;;3.30;3.10;;;12.60;75.20;;;;;;5094656;28;20582;-74
2022/07/24 00:29:08;;;;;;;4.63;3.63;;;12.60;81.60;;;;;;5094425;28;20244;-74
2022/07/24 00:31:34;;;;;;;4.47;3.80;;;12.60;83.60;;;;;;5094557;28;20219;-68
2022/07/24 00:33:59;;;;;;;4.20;3.57;;;12.60;81.80;;;;;;5093221;28;20646;-74
2022/07/24 00:36:25;;;;;;;3.70;3.50;;;12.70;89.30;;;;;;5075956;28;20899;-75
2022/07/24 00:38:51;;;;;;;5.53;3.90;;;12.70;92.10;;;;;;5094428;28;20669;-73
2022/07/24 00:41:16;;;;;;;4.77;3.73;;;12.60;93.00;;;;;;5094262;28;20173;-74
2022/07/24 00:44:10;;;;;;;5.90;4.47;;;12.60;93.00;;;;;;5093286;28;20266;-66
2022/07/24 00:46:38;;;;;;;5.57;3.70;;;12.60;93.00;;;;;;5075996;28;20170;-67
2022/07/24 00:49:06;;;;;;;4.50;3.40;;;12.60;93.00;;;;;;5094130;28;20487;-74
2022/07/24 00:51:33;;;;;;;3.63;3.33;;;12.50;92.90;;;;;;5094227;28;20402;-70
2022/07/24 00:53:59;;;;;;;4.03;3.60;;;12.50;92.90;;;;;;5092511;28;20498;-66
2022/07/24 00:56:25;;;;;;;6.33;4.00;;;12.40;92.90;;;;;;5094071;28;20927;-74
2022/07/24 00:58:51;;;;;;;4.63;3.60;;;12.40;92.90;;;;;;5094051;28;20378;-73
2022/07/24 01:01:18;;;;;;;4.17;3.87;;;12.40;92.90;;;;;;5093861;28;20411;-74
2022/07/24 01:03:44;;;;;;;3.67;3.40;;;12.30;92.90;;;;;;5092920;28;20414;-75
2022/07/24 01:06:10;;;;;;;3.50;3.30;;;12.30;92.90;;;;;;5093863;28;20421;-73
2022/07/24 01:08:37;;;;;;;5.77;3.63;;;12.30;92.90;;;;;;5093878;28;20809;-66
2022/07/24 01:11:03;;;;;;;4.00;3.70;;;12.30;92.90;;;;;;5093301;28;20432;-72
2022/07/24 01:13:30;;;;;;;4.13;3.30;;;12.20;92.80;;;;;;5092525;28;20764;-73
2022/07/24 01:15:57;;;;;;;4.40;4.00;;;12.20;92.80;;;;;;5093566;28;20454;-74
2022/07/24 01:18:23;;;;;;;4.40;4.00;;;12.10;92.80;;;;;;5093364;28;20430;-66
2022/07/24 01:20:50;;;;;;;4.60;3.80;;;12.00;92.70;;;;;;5093622;28;20756;-66
2022/07/24 01:23:15;;;;;;;4.13;3.60;;;12.00;92.80;;;;;;5092547;28;20404;-74
2022/07/24 01:25:41;;;;;;;4.60;4.20;;;12.00;92.80;;;;;;5093305;28;20522;-66
2022/07/24 01:28:07;;;;;;;5.20;4.70;;;12.00;92.80;;;;;;5093566;28;20220;-66
2022/07/24 01:30:33;;;;;;;4.10;3.47;;;12.00;94.30;;;;;;5092744;28;20184;-66
2022/07/24 01:32:59;;;;;;;5.27;3.50;;;12.10;99.90;;;;;;5092499;28;20166;-74
2022/07/24 01:35:25;;;;;;;4.70;4.30;;;12.10;98.70;;;;;;5093236;28;20509;-74
2022/07/24 01:37:52;;;;;;;4.40;4.00;;;12.20;99.90;;;;;;5093232;28;20404;-75
2022/07/24 01:40:18;;;;;;;5.23;4.13;;;12.20;99.90;;;;;;5093345;28;20373;-67
2022/07/24 01:42:44;;;;;;;5.07;4.20;;;12.20;99.90;;;;;;5092456;28;20450;-74
2022/07/24 01:45:10;;;;;;;9.33;3.80;;;12.20;99.90;;;;;;5093077;28;20394;-74
2022/07/24 01:47:36;;;;;;;4.10;3.70;;;12.20;99.90;;;;;;5092581;28;20174;-72
2022/07/24 01:50:02;;;;;;;5.03;4.13;;;12.20;99.90;;;;;;5093235;28;20412;-74
2022/07/24 01:52:28;;;;;;;3.93;3.60;;;12.20;99.90;;;;;;5092238;28;20393;-66
2022/07/24 01:54:54;;;;;;;4.67;4.27;;;12.20;99.90;;;;;;5093039;28;20959;-68
2022/07/24 01:57:19;;;;;;;5.00;4.60;;;12.20;99.90;;;;;;5093175;28;20510;-74
2022/07/24 01:59:45;;;;;;;4.93;4.43;;;12.20;99.90;;;;;;5092954;28;20166;-71
2022/07/24 02:02:11;;;;;;;5.30;4.20;;;12.20;99.90;;;;;;5092249;28;20168;-74
2022/07/24 02:04:37;;;;;;;4.23;3.93;;;12.20;99.90;;;;;;5092468;28;20402;-68
2022/07/24 02:07:02;;;;;;;5.47;4.97;;;12.20;99.90;;;;;;5074760;28;20216;-74
2022/07/24 02:09:28;;;;;;;3.77;3.47;;;12.30;99.90;;;;;;5093052;28;20174;-74
2022/07/24 02:11:54;;;;;;;4.20;3.90;;;12.20;99.90;;;;;;5092853;28;20239;-73
2022/07/24 02:14:20;;;;;;;3.90;3.53;;;12.30;99.90;;;;;;5092117;28;20264;-74
2022/07/24 02:16:46;;;;;;;3.77;3.47;;;12.20;99.90;;;;;;5093005;28;20194;-66
2022/07/24 02:19:12;;;;;;;4.67;4.27;;;12.20;99.90;;;;;;5092911;28;20160;-75
2022/07/24 02:21:38;;;;;;;4.77;3.70;;;12.20;99.90;;;;;;5092832;28;20395;-67
2022/07/24 02:24:04;;;;;;;4.03;3.73;;;12.20;99.90;;;;;;5091561;28;20177;-74
2022/07/24 02:26:30;;;;;;;4.47;4.07;;;12.20;99.90;;;;;;5092565;28;20399;-74
2022/07/24 02:28:56;;;;;;;4.97;4.53;;;12.20;99.90;;;;;;5092777;28;20902;-69
2022/07/24 02:31:22;;;;;;;4.50;4.10;;;12.10;99.90;;;;;;5094450;28;20166;-66
2022/07/24 02:33:48;;;;;;;9.67;5.70;;;12.10;99.90;;;;;;5095768;28;20276;-74
2022/07/24 02:36:13;;;;;;;5.03;4.53;;;12.00;99.90;;;;;;5096581;28;20451;-74
2022/07/24 02:38:40;;;;;;;4.37;4.07;;;12.00;99.90;;;;;;5096779;28;20468;-66
2022/07/24 02:41:06;;;;;;;4.70;4.30;;;12.10;99.90;;;;;;5096650;28;20166;-67
2022/07/24 02:43:32;;;;;;;5.03;4.40;;;12.10;99.90;;;;;;5095683;28;20796;-73
2022/07/24 02:45:58;;;;;;;4.43;4.10;;;12.10;99.90;;;;;;5095939;28;20468;-67
2022/07/24 02:48:23;;;;;;;5.60;5.10;;;12.10;99.90;;;;;;5096508;28;20403;-67
2022/07/24 02:50:49;;;;;;;7.50;4.27;;;12.10;99.90;;;;;;5096620;28;20653;-73
2022/07/24 02:53:15;;;;;;;4.67;4.27;;;12.20;99.90;;;;;;5077316;28;20304;-74
2022/07/24 02:55:41;;;;;;;5.03;4.10;;;12.20;99.90;;;;;;5077976;28;20438;-73
2022/07/24 02:58:06;;;;;;;4.40;4.00;;;12.20;99.90;;;;;;5096358;28;20209;-67
2022/07/24 03:00:32;;;;;;;5.50;4.90;;;12.20;99.90;;;;;;5096188;28;20170;-66
2022/07/24 03:02:59;;;;;;;5.63;4.63;;;12.20;99.90;;;;;;5076543;28;20196;-73
2022/07/24 03:05:25;;;;;;;7.33;5.07;;;12.20;99.90;;;;;;5096233;28;20186;-74
2022/07/24 03:07:51;;;;;;;7.47;5.80;;;12.20;99.90;;;;;;5096154;28;20402;-67
2022/07/24 03:10:17;;;;;;;5.03;4.53;;;12.20;99.90;;;;;;5096024;28;20196;-73
2022/07/24 03:12:43;;;;;;;6.17;4.87;;;12.20;99.90;;;;;;5095225;28;20173;-74
2022/07/24 03:15:10;;;;;;;4.43;4.03;;;12.20;99.90;;;;;;5095678;28;20470;-74
2022/07/24 03:17:36;;;;;;;7.87;5.17;;;12.30;99.90;;;;;;5095764;28;20394;-73
2022/07/24 03:20:03;;;;;;;5.77;4.73;;;12.30;99.90;;;;;;5096082;28;20718;-66
2022/07/24 03:22:28;;;;;;;4.83;4.40;;;12.30;99.90;;;;;;5094103;28;20282;-66
2022/07/24 03:24:54;;;;;;;5.17;4.57;;;12.30;99.90;;;;;;5095807;28;20994;-68
2022/07/24 03:27:20;;;;;;;5.80;5.07;;;12.30;99.90;;;;;;5095860;28;20174;-74
2022/07/24 03:29:45;;;;;;;6.93;5.23;;;12.30;99.90;;;;;;5095754;28;20181;-74
2022/07/24 03:32:11;;;;;;;5.00;4.50;;;12.40;99.90;;;;;;5094806;28;20522;-69
2022/07/24 03:34:37;;;;;;;5.07;4.60;;;12.40;99.90;;;;;;5095267;28;20661;-67
2022/07/24 03:37:02;;;;;;;7.13;4.87;;;12.40;99.90;;;;;;5095533;28;20552;-74
2022/07/24 03:39:28;;;;;;;5.13;4.07;;;12.40;99.90;;;;;;5095647;28;20165;-66
2022/07/24 03:41:54;;;;;;;4.67;4.33;;;12.40;99.90;;;;;;5094810;28;20162;-66
2022/07/24 03:44:19;;;;;;;6.00;4.80;;;12.40;99.90;;;;;;5094501;28;20205;-73
2022/07/24 03:46:45;;;;;;;5.83;4.93;;;12.40;99.90;;;;;;5095461;28;20697;-75
2022/07/24 03:49:11;;;;;;;6.90;5.03;;;12.40;99.90;;;;;;5095351;28;20169;-67
2022/07/24 03:51:36;;;;;;;8.33;4.43;;;12.50;99.90;;;;;;5095433;28;20176;-68
2022/07/24 03:54:03;;;;;;;10.10;4.70;;;12.40;99.90;;;;;;5094420;28;20193;-75
2022/07/24 03:56:29;;;;;;;5.97;5.37;;;12.50;99.90;;;;;;5095135;28;20190;-67
2022/07/24 03:58:55;;;;;;;6.17;4.43;;;12.50;99.90;;;;;;5094515;28;20874;-70
2022/07/24 04:01:21;;;;;;;5.23;4.80;;;12.50;99.90;;;;;;5095194;28;20411;-75
2022/07/24 04:03:47;;;;;;;5.73;5.10;;;12.50;99.90;;;;;;5094065;28;20186;-74
2022/07/24 04:06:13;;;;;;;9.10;5.47;;;12.50;99.90;;;;;;5095106;28;20855;-67
2022/07/24 04:08:39;;;;;;;8.63;4.17;;;12.50;99.90;;;;;;5094941;28;20385;-74
2022/07/24 04:11:07;;;;;;;4.57;4.17;;;12.50;99.90;;;;;;5094935;28;20174;-74
2022/07/24 04:13:33;;;;;;;5.77;4.60;;;12.50;99.90;;;;;;5093895;28;20465;-70
2022/07/24 04:15:59;;;;;;;6.23;5.63;;;12.60;99.90;;;;;;5094690;28;20480;-74
2022/07/24 04:18:25;;;;;;;9.13;5.80;;;12.60;99.90;;;;;;5094068;28;20400;-67
2022/07/24 04:20:51;;;;;;;7.50;4.63;;;12.70;99.90;;;;;;5094748;28;20296;-74
2022/07/24 04:23:16;;;;;;;7.80;4.93;;;12.70;99.90;;;;;;5093803;28;20490;-67
2022/07/24 04:25:42;;;;;;;10.13;5.10;;;12.70;99.90;;;;;;5094585;28;20189;-66
2022/07/24 04:28:08;;;;;;;12.10;5.00;;;12.80;99.90;;;;;;5094732;28;20173;-75
2022/07/24 04:30:33;;;;;;;5.60;5.10;;;12.80;99.90;;;;;;5094375;28;20181;-66
2022/07/24 04:32:59;;;;;;;6.83;4.93;;;12.80;99.90;;;;;;5093441;28;20174;-67
2022/07/24 04:35:25;;;;;;;6.13;5.07;;;12.90;99.90;;;;;;5093785;28;20662;-71
2022/07/24 04:37:51;;;;;;;8.47;5.57;;;12.90;99.90;;;;;;5094194;28;20166;-66
2022/07/24 04:40:17;;;;;;;7.83;5.33;;;13.00;99.90;;;;;;5094371;28;20257;-74
2022/07/24 04:42:43;;;;;;;6.13;5.57;;;13.10;99.90;;;;;;5093596;28;20176;-69
2022/07/24 04:45:09;;;;;;;5.30;4.80;;;13.00;99.90;;;;;;5094046;28;20272;-67
2022/07/24 04:47:36;;;;;;;8.37;4.30;;;13.10;99.90;;;;;;5094271;28;20407;-67
2022/07/24 04:50:04;;;;;;;4.60;4.00;;;13.10;99.90;;;;;;5094373;28;20400;-75
2022/07/24 04:52:30;;;;;;;4.33;3.93;;;13.10;99.90;;;;;;5093170;28;20439;-66
2022/07/24 04:54:55;;;;;;;5.03;4.40;;;13.20;99.90;;;;;;5092824;28;20498;-73
2022/07/24 04:57:21;;;;;;;7.00;4.00;;;13.20;99.90;;;;;;5094038;28;20396;-67
2022/07/24 04:59:47;;;;;;;6.83;5.40;;;13.30;99.90;;;;;;5093997;28;20197;-75
2022/07/24 05:02:13;;;;;;;5.07;4.57;;;13.40;99.90;;;;;;5093126;28;20382;-67
2022/07/24 05:04:42;;;;;;;4.20;3.90;;;13.40;99.90;;;;;;5093887;28;20193;-67
2022/07/24 05:07:08;;;;;;;4.97;4.57;;;13.40;99.90;;;;;;5093797;28;20180;-67
2022/07/24 05:09:33;;;;;;;5.17;4.77;;;13.40;99.90;;;;;;5093812;28;20412;-67
2022/07/24 05:12:02;;;;;;;4.27;3.97;;;13.50;99.90;;;;;;5093613;28;20174;-67
2022/07/24 05:14:28;;;;;;;3.90;3.60;;;13.60;99.90;;;;;;5092365;28;20458;-76
2022/07/24 05:16:54;;;;;;;6.10;3.97;;;13.60;99.90;;;;;;5093615;28;20366;-74
2022/07/24 05:19:20;;;;;;;6.70;4.30;;;13.70;99.90;;;;;;5075365;28;20420;-68
2022/07/24 05:21:46;;;;;;;5.53;3.53;;;13.80;99.90;;;;;;5093616;28;20170;-66
2022/07/24 05:24:12;;;;;;;3.00;2.80;;;13.80;99.90;;;;;;5092750;28;20181;-75
2022/07/24 05:26:38;;;;;;;3.07;2.77;;;13.90;99.90;;;;;;5093607;28;20888;-75
2022/07/24 05:29:07;;;;;;;3.30;3.10;;;14.00;99.90;;;;;;5093316;28;20430;-68
2022/07/24 05:31:34;;;;;;;3.40;3.10;;;14.10;99.90;;;;;;5093079;28;20453;-67
2022/07/24 05:34:02;;;;;;;3.50;3.00;;;14.20;99.90;;;;;;5092550;28;20447;-74
2022/07/24 05:36:29;;;;;;;4.17;3.43;;;14.30;99.90;;;;;;5093379;28;20433;-66
2022/07/24 05:38:58;;;;;;;4.30;3.90;;;14.20;99.90;;;;;;5093284;28;20487;-74
2022/07/24 05:42:11;;;;;;;3.40;3.20;;;14.30;99.90;;;;;;5093293;28;20415;-74
2022/07/24 05:45:03;;;;;;;2.90;2.70;;;14.40;99.90;;;;;;5083908;28;20443;-73
2022/07/24 05:47:35;;;;;;;4.00;3.40;;;14.60;99.90;;;;;;5081853;28;20742;-74
2022/07/24 05:50:01;;;;;;;4.13;2.87;;;14.70;99.90;;;;;;5093372;28;20491;-73
2022/07/24 05:52:27;;;;;;;3.20;3.00;;;14.80;99.90;;;;;;5092239;28;20538;-73
2022/07/24 05:54:53;;;;;;;3.40;3.13;;;14.80;99.90;;;;;;5093105;28;20455;-73
2022/07/24 05:57:19;;;;;;;3.13;2.93;;;14.90;99.90;;;;;;5074826;28;20481;-74
2022/07/24 05:59:45;;;;;;;3.83;3.53;;;15.00;99.90;;;;;;5075176;28;20183;-73
2022/07/24 06:02:10;;;;;;;4.03;3.63;;;15.00;99.90;;;;;;5092299;28;20162;-74
2022/07/24 06:04:41;;;;;;;3.37;3.07;;;15.10;99.90;;;;;;5093027;28;20661;-73
2022/07/24 06:07:09;;;;;;;3.47;3.17;;;15.20;99.90;;;;;;5095354;28;20173;-73
2022/07/24 06:09:35;;;;;;;4.53;3.07;;;15.30;99.90;;;;;;5079043;28;20412;-73
2022/07/24 06:12:01;;;;;;;3.77;3.47;;;15.40;99.90;;;;;;5097071;28;20768;-73
2022/07/24 06:14:27;;;;;;;4.43;3.13;;;15.40;99.90;;;;;;5078748;28;20443;-73
2022/07/24 06:16:55;;;;;;;3.07;2.80;;;15.40;99.90;;;;;;5097023;28;20158;-76
2022/07/24 06:19:21;;;;;;;5.00;2.40;;;15.60;99.90;;;;;;5097146;28;20407;-73
2022/07/24 06:21:47;;;;;;;3.30;2.93;;;15.60;99.90;;;;;;5096956;28;20400;-72
2022/07/24 06:24:13;;;;;;;3.67;2.63;;;15.60;99.90;;;;;;5078426;28;20331;-74
2022/07/24 06:26:39;;;;;;;5.37;3.00;;;15.70;99.90;;;;;;5078232;28;20498;-73
2022/07/24 06:29:05;;;;;;;3.17;2.00;;;15.80;99.90;;;;;;5096926;28;20168;-72
2022/07/24 06:31:31;;;;;;;3.33;2.70;;;15.90;99.90;;;;;;5096848;28;20408;-73
2022/07/24 06:33:57;;;;;;;2.60;2.40;;;16.00;98.00;;;;;;5078099;28;20185;-72
2022/07/24 06:36:33;;;;;;;3.83;3.53;;;16.10;96.90;;;;;;5096669;28;20443;-74
2022/07/24 06:38:59;;;;;;;5.10;2.60;;;16.20;94.30;;;;;;5078269;28;20218;-73
2022/07/24 06:41:27;;;;;;;2.50;2.30;;;16.20;94.30;;;;;;5096773;28;20404;-74
2022/07/24 06:43:53;;;;;;;3.80;2.20;;;16.30;94.30;;;;;;5095742;28;20185;-74
2022/07/24 06:46:29;;;;;;;2.30;2.10;;;16.40;94.40;;;;;;5095897;28;20764;-74
2022/07/24 06:48:55;;;;;;;3.70;2.70;;;16.40;84.30;;;;;;5096537;28;20407;-74
2022/07/24 06:51:20;;;;;;;2.10;1.90;;;16.60;65.50;;;;;;5078628;28;20418;-75
2022/07/24 06:53:46;;;;;;;2.23;2.00;;;16.60;72.90;;;;;;5096090;28;20561;-70
2022/07/24 06:59:54;;;;;;;3.13;2.17;;;16.80;44.40;;;;;;5033983;28;20803;-67
2022/07/24 07:02:58;;;;;;;2.83;1.93;;;16.90;40.00;;;;;;5032804;28;20529;-67
2022/07/24 07:05:26;;;;;;;2.73;1.87;;;17.00;27.60;;;;;;5061426;28;20518;-76
2022/07/24 07:07:52;;;;;;;2.30;2.07;;;17.10;26.40;;;;;;5096208;28;20596;-67
2022/07/24 07:10:19;;;;;;;2.63;2.43;;;17.30;3.50;;;;;;5078092;28;20420;-67
2022/07/24 07:12:44;;;;;;;2.33;2.23;;;17.50;10.60;;;;;;5095645;28;20517;-74
2022/07/24 07:15:11;;;;;;;2.60;2.40;;;17.70;20.50;;;;;;5077715;28;20979;-67
2022/07/24 07:17:41;;;;;;;2.60;2.40;;;17.90;5.60;;;;;;5095541;28;20177;-75
2022/07/24 07:20:09;;;;;;;2.50;2.20;;;17.90;1.00;;;;;;5095331;28;20431;-71
2022/07/24 07:22:35;;;;;;;3.43;2.10;;;18.00;1.00;;;;;;5077124;28;20408;-75
2022/07/24 07:25:04;;;;;;;2.80;2.50;;;18.10;1.00;;;;;;5095825;28;20427;-75
2022/07/24 07:27:30;;;;;;;2.40;2.30;;;18.20;1.00;;;;;;5095834;28;20177;-68
2022/07/24 07:29:56;;;;;;;2.40;2.20;;;18.40;1.00;;;;;;5095825;28;20408;-75
2022/07/24 07:32:22;;;;;;;4.47;2.63;;;18.60;1.00;;;;;;5077058;28;20180;-74
2022/07/24 07:34:48;;;;;;;2.33;2.10;;;18.70;1.00;;;;;;5095762;28;20207;-69
2022/07/24 07:37:14;;;;;;;5.00;2.20;;;18.80;1.00;;;;;;5095165;28;20396;-74
2022/07/24 07:39:40;;;;;;;3.03;2.00;;;18.80;1.00;;;;;;5095469;28;20410;-75
2022/07/24 07:42:06;;;;;;;2.90;2.70;;;18.80;1.00;;;;;;5095352;28;20404;-75
2022/07/24 07:44:32;;;;;;;2.50;2.03;;;18.80;1.00;;;;;;5094840;28;20174;-69
2022/07/24 07:46:58;;;;;;;2.30;2.20;;;18.90;1.00;;;;;;5095484;28;20398;-75
2022/07/24 07:49:24;;;;;;;2.13;1.90;;;18.90;1.00;;;;;;5077269;28;20169;-68
2022/07/24 07:51:51;;;;;;;3.17;2.30;;;18.90;1.00;;;;;;5095381;28;20399;-69
2022/07/24 07:54:18;;;;;;;2.67;2.47;;;19.00;1.00;;;;;;5094580;28;20331;-68
2022/07/24 07:56:50;;;;;;;6.13;2.77;;;19.10;1.00;;;;;;5094467;28;20896;-75
2022/07/24 07:59:16;;;;;;;2.50;2.30;;;19.20;1.00;;;;;;5077038;28;20403;-68
2022/07/24 08:01:45;;;;;;;2.93;2.67;;;19.10;1.00;;;;;;5077289;28;20411;-70
2022/07/24 08:04:13;;;;;;;2.40;2.20;;;19.20;1.00;;;;;;5076311;28;20753;-68
2022/07/24 08:06:39;;;;;;;5.90;2.50;;;19.30;1.00;;;;;;5076755;28;20407;-75
2022/07/24 08:09:05;;;;;;;9.43;3.63;;;19.40;1.00;;;;;;5094825;28;20403;-73
2022/07/24 08:11:31;;;;;;;2.27;2.07;;;19.40;1.00;;;;;;5094971;28;20515;-69
2022/07/24 08:13:56;;;;;;;2.73;2.53;;;19.60;1.00;;;;;;5075982;28;20310;-70
2022/07/24 08:16:23;;;;;;;2.80;2.53;;;19.70;1.00;;;;;;5076204;28;20447;-76
2022/07/24 08:18:49;;;;;;;2.60;2.40;;;19.70;1.00;;;;;;5094664;28;20213;-69
2022/07/24 08:21:15;;;;;;;3.93;2.60;;;19.80;1.00;;;;;;5094735;28;20435;-76
2022/07/24 08:23:41;;;;;;;2.90;2.60;;;19.90;1.00;;;;;;5093905;28;20461;-75
2022/07/24 08:26:17;;;;;;;3.20;2.47;;;19.90;1.00;;;;;;5076563;28;20411;-68
2022/07/24 08:28:45;;;;;;;3.77;2.63;;;20.20;1.00;;;;;;5093679;28;20403;-68
2022/07/24 08:31:13;;;;;;;2.93;2.50;;;20.40;1.00;;;;;;5094547;28;20399;-68
2022/07/24 08:33:39;;;;;;;2.57;2.13;;;20.60;1.00;;;;;;5093483;28;20490;-74
2022/07/24 08:36:05;;;;;;;1.87;1.77;;;20.80;1.00;;;;;;5076027;28;20543;-74
2022/07/24 08:38:31;;;;;;;3.00;2.80;;;20.90;1.00;;;;;;5094346;28;20450;-74
2022/07/24 08:40:57;;;;;;;6.10;2.70;;;21.00;1.00;;;;;;5094325;28;20916;-74
2022/07/24 08:43:23;;;;;;;2.80;2.53;;;20.90;1.00;;;;;;5093526;28;20237;-68
2022/07/24 08:45:53;;;;;;;4.43;2.63;;;20.70;1.00;;;;;;5094304;28;20494;-75
2022/07/24 08:48:21;;;;;;;3.63;2.40;;;20.80;1.00;;;;;;5076154;28;20919;-68
2022/07/24 08:50:47;;;;;;;3.70;2.57;;;20.70;1.00;;;;;;5094138;28;20487;-75
2022/07/24 08:53:13;;;;;;;2.60;2.40;;;20.90;1.00;;;;;;5093268;28;20411;-74
2022/07/24 08:55:39;;;;;;;3.23;2.70;;;21.00;1.00;;;;;;5093478;28;20455;-75
2022/07/24 08:58:05;;;;;;;2.27;2.03;;;21.20;1.00;;;;;;5094044;28;20404;-68
2022/07/24 09:00:32;;;;;;;2.67;2.20;;;21.30;1.00;;;;;;5094075;28;20392;-75
2022/07/24 09:03:04;;;;;;;2.73;2.43;;;21.50;1.00;;;;;;5075194;28;20404;-68
2022/07/24 09:05:40;;;;;;;2.33;2.13;;;21.70;1.00;;;;;;5093840;28;20427;-69
2022/07/24 09:08:10;;;;;;;4.90;2.30;;;21.90;1.00;;;;;;5093885;28;20888;-69
2022/07/24 09:10:36;;;;;;;2.33;2.13;;;22.10;1.00;;;;;;5093762;28;20454;-71
2022/07/24 09:13:16;;;;;;;3.33;2.50;;;22.30;1.00;;;;;;5074855;28;20468;-74
2022/07/24 09:15:51;;;;;;;2.53;2.33;;;22.40;1.00;;;;;;5093097;28;20193;-74
2022/07/24 09:18:32;;;;;;;2.47;2.27;;;22.50;1.00;;;;;;5093780;28;20423;-74
2022/07/24 09:21:15;;;;;;;2.20;2.10;;;22.60;1.00;;;;;;5093499;28;20436;-67
2022/07/24 09:23:42;;;;;;;2.40;2.20;;;22.80;1.00;;;;;;5092954;28;20422;-66
2022/07/24 09:26:07;;;;;;;2.40;2.00;;;23.10;1.00;;;;;;5093619;28;20422;-68
2022/07/24 09:28:54;;;;;;;4.20;3.50;;;23.20;1.00;;;;;;5075455;28;20408;-68
2022/07/24 09:31:23;;;;;;;5.40;2.70;;;23.40;1.00;;;;;;5074608;28;20633;-68
2022/07/24 09:33:49;;;;;;;3.30;2.27;;;23.60;1.00;;;;;;5092892;28;20427;-67
2022/07/24 09:36:19;;;;;;;2.23;2.03;;;23.80;1.00;;;;;;5093541;28;20785;-75
2022/07/24 09:38:49;;;;;;;3.70;2.50;;;24.00;1.00;;;;;;5093445;28;20406;-66
2022/07/24 09:41:25;;;;;;;6.80;2.77;;;24.20;1.00;;;;;;5093212;28;20395;-68
2022/07/24 09:43:58;;;;;;;3.23;2.50;;;24.30;1.00;;;;;;5092710;28;20954;-75
2022/07/24 09:46:26;;;;;;;4.30;2.07;;;24.50;1.00;;;;;;5093494;28;20407;-68
2022/07/24 09:48:55;;;;;;;1.90;1.80;;;24.80;1.00;;;;;;5093282;28;20466;-70
2022/07/24 09:51:22;;;;;;;3.20;2.27;;;24.90;1.00;;;;;;5092395;28;20400;-68
2022/07/24 09:53:56;;;;;;;3.20;2.07;;;25.00;1.00;;;;;;5092532;28;20432;-75
2022/07/24 09:56:23;;;;;;;2.37;2.20;;;25.30;1.00;;;;;;5091974;28;20493;-67
2022/07/24 09:58:58;;;;;;;4.37;4.07;;;25.50;1.00;;;;;;5091820;28;20411;-74
2022/07/24 10:01:27;;;;;;;3.40;2.20;;;25.80;1.00;;;;;;5093114;28;20405;-67
2022/07/24 10:03:56;;;;;;;4.33;2.10;;;25.90;1.00;;;;;;5092331;28;20437;-73
2022/07/24 10:06:25;;;;;;;3.63;2.50;;;25.90;1.00;;;;;;5091889;28;20419;-67
2022/07/24 10:08:52;;;;;;;2.60;2.40;;;25.80;1.00;;;;;;5092444;28;20498;-67
2022/07/24 10:11:19;;;;;;;2.93;2.57;;;25.80;1.00;;;;;;5093150;28;20447;-66
2022/07/24 10:13:45;;;;;;;2.20;2.10;;;25.90;1.00;;;;;;5092289;28;20432;-74
2022/07/24 10:16:13;;;;;;;2.93;2.73;;;25.80;1.00;;;;;;5074714;28;20455;-67
2022/07/24 10:18:49;;;;;;;3.67;2.47;;;25.90;1.00;;;;;;5092738;28;20416;-68
2022/07/24 10:21:18;;;;;;;2.60;2.20;;;26.00;1.00;;;;;;5092937;28;20429;-68
2022/07/24 10:24:03;;;;;;;2.20;2.00;;;26.10;1.00;;;;;;5092166;28;20415;-75
2022/07/24 10:26:44;;;;;;;2.50;2.30;;;26.00;1.00;;;;;;5092628;28;20407;-69
2022/07/24 10:29:12;;;;;;;3.07;2.77;;;25.80;1.00;;;;;;5092712;28;20400;-74
2022/07/24 10:31:40;;;;;;;2.60;2.40;;;25.60;1.00;;;;;;5092813;28;20466;-75
2022/07/24 10:34:27;;;;;;;5.80;2.57;;;25.50;1.00;;;;;;5074071;28;20431;-75
2022/07/24 10:37:37;;;;;;;2.90;2.70;;;25.60;1.00;;;;;;5092804;28;20418;-68
2022/07/24 10:40:12;;;;;;;3.40;3.20;;;25.80;1.00;;;;;;5010576;28;20415;-75
2022/07/24 10:43:05;;;;;;;3.77;3.53;;;25.90;1.00;;;;;;5010090;28;20947;-74
2022/07/24 10:45:33;;;;;;;4.07;3.27;;;26.10;1.00;;;;;;5072237;28;20454;-74
2022/07/24 10:48:21;;;;;;;4.53;4.00;;;26.30;1.00;;;;;;5092589;28;20483;-74
2022/07/24 10:51:03;;;;;;;3.60;3.27;;;26.50;99.90;;;;;;5092538;28;20761;-67
2022/07/24 10:53:40;;;;;;;4.03;3.63;;;26.70;1.00;;;;;;5095088;28;20491;-67
2022/07/24 10:56:34;;;;;;;3.60;3.20;;;27.10;99.90;;;;;;5078074;28;20541;-75
2022/07/24 10:59:04;;;;;;;3.20;3.00;;;27.80;99.90;;;;;;5078537;28;20460;-67
2022/07/24 11:01:44;;;;;;;3.43;3.13;;;28.30;99.90;;;;;;5096271;28;20918;-69
2022/07/24 11:04:22;;;;;;;4.73;3.60;;;28.80;99.90;;;;;;5094807;28;20415;-69
2022/07/24 11:06:56;;;;;;;3.53;3.23;;;29.00;99.90;;;;;;5096223;28;20407;-69
2022/07/24 11:09:24;;;;;;;3.47;3.27;;;29.20;99.90;;;;;;5096137;28;20396;-76
2022/07/24 11:11:53;;;;;;;4.47;4.17;;;29.70;99.90;;;;;;5096220;28;20395;-74
2022/07/24 11:14:46;;;;;;;4.70;4.40;;;29.90;99.90;;;;;;5095481;28;20463;-68
2022/07/24 11:17:45;;;;;;;3.60;3.27;;;29.90;99.90;;;;;;5077814;28;20431;-73
2022/07/24 11:20:16;;;;;;;4.97;4.57;;;30.30;1.00;;;;;;5095842;28;20457;-68
2022/07/24 11:22:51;;;;;;;9.60;3.60;;;30.40;99.90;;;;;;5095313;28;20738;-76
2022/07/24 11:25:25;;;;;;;6.30;4.70;;;30.00;1.00;;;;;;5095222;28;20419;-68
2022/07/24 11:27:57;;;;;;;4.33;3.93;;;29.40;99.90;;;;;;5095941;28;20427;-72
2022/07/24 11:30:25;;;;;;;4.50;4.10;;;29.40;99.90;;;;;;5095714;28;20491;-76
2022/07/24 11:32:51;;;;;;;4.73;3.63;;;29.50;99.90;;;;;;5076982;28;20768;-77
2022/07/24 11:35:29;;;;;;;5.10;4.60;;;30.00;99.90;;;;;;5095473;28;20443;-71
2022/07/24 11:37:55;;;;;;;3.60;3.37;;;30.30;99.90;;;;;;5095778;28;20166;-76
2022/07/24 11:40:22;;;;;;;3.93;3.63;;;30.40;99.90;;;;;;5095563;28;20790;-71
2022/07/24 11:42:55;;;;;;;4.73;3.93;;;30.50;99.90;;;;;;5076503;28;20212;-76
2022/07/24 11:45:20;;;;;;;3.70;3.40;;;30.70;1.00;;;;;;5095184;28;20427;-77
2022/07/24 11:47:46;;;;;;;4.00;3.60;;;30.90;1.00;;;;;;5096102;28;20403;-75
2022/07/24 11:50:12;;;;;;;4.33;3.93;;;30.60;99.90;;;;;;5095270;28;20666;-71
2022/07/24 11:52:40;;;;;;;6.60;4.13;;;30.90;1.00;;;;;;5094569;28;20633;-71
2022/07/24 11:55:14;;;;;;;4.20;3.90;;;31.60;1.00;;;;;;5095196;28;20280;-78
2022/07/24 11:57:43;;;;;;;3.87;3.57;;;31.90;1.00;;;;;;5095332;28;20496;-70
2022/07/24 12:00:14;;;;;;;3.03;2.80;;;32.00;1.00;;;;;;5095142;28;20759;-69
2022/07/24 12:02:48;;;;;;;4.10;3.70;;;31.60;1.00;;;;;;5093532;28;20415;-77
2022/07/24 12:05:27;;;;;;;3.10;2.90;;;30.80;1.00;;;;;;5094269;28;20419;-73
2022/07/24 12:07:53;;;;;;;4.60;4.27;;;30.40;1.00;;;;;;5095208;28;20402;-76
2022/07/24 12:10:23;;;;;;;3.90;3.60;;;30.30;1.00;;;;;;5076993;28;20419;-69
2022/07/24 12:12:50;;;;;;;4.30;4.00;;;30.10;1.00;;;;;;5094199;28;20859;-76
2022/07/24 12:15:16;;;;;;;3.67;3.37;;;30.40;1.00;;;;;;5094764;28;20799;-75
2022/07/24 12:17:55;;;;;;;4.83;4.30;;;30.80;1.00;;;;;;5094378;28;20427;-74
2022/07/24 12:20:36;;;;;;;3.80;3.50;;;31.40;1.00;;;;;;5094796;28;20514;-71
2022/07/24 12:23:05;;;;;;;4.47;4.07;;;31.50;1.00;;;;;;5094105;28;20428;-71
2022/07/24 12:25:32;;;;;;;5.20;4.27;;;31.30;1.00;;;;;;5094646;28;20485;-76
2022/07/24 12:28:08;;;;;;;5.40;4.10;;;31.30;1.00;;;;;;5076466;28;20420;-76
2022/07/24 12:30:39;;;;;;;4.33;3.93;;;31.30;1.00;;;;;;5094547;28;20473;-72
2022/07/24 12:33:08;;;;;;;4.63;4.23;;;31.20;1.00;;;;;;5093917;28;20428;-76
2022/07/24 12:35:55;;;;;;;4.87;4.47;;;30.90;1.00;;;;;;5093730;28;20452;-71
2022/07/24 12:38:29;;;;;;;4.97;4.57;;;30.30;1.00;;;;;;5094536;28;20392;-71
2022/07/24 12:41:10;;;;;;;4.97;4.10;;;29.50;1.00;;;;;;5094411;28;20399;-71
2022/07/24 12:43:56;;;;;;;4.80;4.40;;;29.40;1.00;;;;;;5093721;28;20896;-70
2022/07/24 12:46:29;;;;;;;4.90;4.40;;;29.00;1.00;;;;;;5094405;28;20498;-76
2022/07/24 12:49:04;;;;;;;4.63;4.23;;;28.50;1.00;;;;;;5094196;28;20404;-73
2022/07/24 12:51:52;;;;;;;4.60;4.30;;;28.30;1.00;;;;;;5094189;28;20948;-71
2022/07/24 12:54:19;;;;;;;5.00;3.73;;;28.40;1.00;;;;;;5092904;28;20947;-76
2022/07/24 12:56:46;;;;;;;5.77;4.07;;;28.80;1.00;;;;;;5093968;28;20474;-71
2022/07/24 12:59:28;;;;;;;4.23;3.93;;;29.20;1.00;;;;;;5094520;28;20399;-75
2022/07/24 13:01:56;;;;;;;3.97;3.67;;;29.50;1.00;;;;;;5094081;28;20876;-74
2022/07/24 13:04:24;;;;;;;5.00;3.83;;;29.50;1.00;;;;;;5093394;28;20451;-70